Hauptseite
METAR-TAF:

METAR-TAF

Flughäfen :

Hassi Messaoud, Algerien

Breite: 31-40N, Länge: 006-09E, Höhe: 142 m

Beobachtung

Neuester Wetterbericht von vor 43 Minuten, um 15:30 UTC
Wind 8 kt aus Süd/Südwest
Temperatur 23°C
Luftfeuchtigkeit 31%
Luftdruck 1018 hPa
Sichtweite 10 km oder mehr
Leicht bewölkt in der Höhe von 4000 ft
Durchbrochene Bewölkung in der Höhe von 10000 ft

METAR: DAUH 251530Z 20008KT 9999 FEW040 BKN100 23/05 Q1018

Zeit: 17:13 (16:13 UTC)

Prognose

Neuester Wetterbericht von vor 5 Stunden und 13 Minuten, um 11:00 UTC
Gültige Prognose vom 25 um 12 UTC bis 26 um 12 UTC
Wind 8 kt aus Süd/Südwest
Sichtweite 10 km oder mehr
keine Wolken unter 1500 m und keine Kumulonimbus oder Gewitterwolken
Übergehend zu
vom 26 um 06 UTC bis 26 um 09 UTC
Wind 10 kt aus Nord/Nordwest

TAF: DAUH 251100Z 2512/2612 20008KT CAVOK BECMG 2606/2609 34010KT

Wetterbeobachtungen und Prognosen von mehr als 4000 Flughäfen (METAR und TAF Bericht).

Die verfügbaren Stationen werden durch gelbe und rote Markierungen auf der Karte dargestellt.

Führen Sie die Maus auf sie, um den Namen der Station zu sehen.

Darauf klicken, um die Beobachtung von Wetterbeobachtungen und Prognosen zu sehen.

Um die Karte zu ändern : klicken Sie auf den grünen Tasten mit einem schwarzen Kreuz Zum Vergrößern, auf den grünen Button mit einem Gedankenstrich zu verkleinern, oder auf die grünen Pfeile für benachbarte Karten.


METAR-TAF: